Blackpool, United Kingdom
Current Conditions -  °F | °C
As of 7:20 AM on Friday 31 Oct 2014 (Local Time) from EGNO Reporting Station
Scattered Clouds Scattered Clouds  
Wind Chill: 59°   Ceiling: Unl
Heat Index: 59°   Visibility: 4mi
Dew Point: 57°   Wind: 13mph
Humidity: 94%   Direction: 160°SSE
Pressure: 29.85"   Gusts: NA
Location:  53.81°N, 3.05°W
Report Text: EGNO 310720Z 16011KT 7000 SCT039 15/14 Q1011
Loading
Personal Weather Stations






























Interactive Weather Map
Tropical Storm Tracking
New forecast layout! Learn more

10-Day Weather Forecast

Advertisements
Track Severe Weather on mobile